sensor_id;sensor_type;location;lat;lon;timestamp;pressure;altitude;pressure_sealevel;temperature;humidity
78313;BME280;67568;47.438;21.408;2023-08-07T00:02:03;99454.63;;;17.16;87.33
78313;BME280;67568;47.438;21.408;2023-08-07T00:04:30;99463.03;;;17.16;87.57
78313;BME280;67568;47.438;21.408;2023-08-07T00:06:57;99467.78;;;17.16;87.76
78313;BME280;67568;47.438;21.408;2023-08-07T00:09:24;99469.66;;;17.08;86.83
78313;BME280;67568;47.438;21.408;2023-08-07T00:11:51;99466.19;;;17.15;87.00
78313;BME280;67568;47.438;21.408;2023-08-07T00:14:17;99477.66;;;17.09;87.58
78313;BME280;67568;47.438;21.408;2023-08-07T00:16:44;99468.81;;;17.07;87.65
78313;BME280;67568;47.438;21.408;2023-08-07T00:19:14;99472.06;;;17.09;86.84
78313;BME280;67568;47.438;21.408;2023-08-07T00:21:41;99481.59;;;17.05;87.70
78313;BME280;67568;47.438;21.408;2023-08-07T00:24:07;99484.38;;;17.05;87.53
78313;BME280;67568;47.438;21.408;2023-08-07T00:26:34;99494.41;;;17.06;86.95
78313;BME280;67568;47.438;21.408;2023-08-07T00:29:01;99500.66;;;16.99;87.43
78313;BME280;67568;47.438;21.408;2023-08-07T00:31:28;99495.41;;;16.98;87.87
78313;BME280;67568;47.438;21.408;2023-08-07T00:33:55;99499.31;;;16.93;87.65
78313;BME280;67568;47.438;21.408;2023-08-07T00:36:23;99498.06;;;16.91;88.17
78313;BME280;67568;47.438;21.408;2023-08-07T00:38:49;99505.22;;;16.88;87.94
78313;BME280;67568;47.438;21.408;2023-08-07T00:41:17;99497.16;;;16.86;88.19
78313;BME280;67568;47.438;21.408;2023-08-07T00:43:46;99501.94;;;16.86;88.21
78313;BME280;67568;47.438;21.408;2023-08-07T00:46:14;99515.94;;;16.86;88.38
78313;BME280;67568;47.438;21.408;2023-08-07T00:48:41;99510.34;;;16.86;88.71
78313;BME280;67568;47.438;21.408;2023-08-07T00:51:08;99505.09;;;16.84;88.54
78313;BME280;67568;47.438;21.408;2023-08-07T00:53:38;99510.63;;;16.81;88.99
78313;BME280;67568;47.438;21.408;2023-08-07T00:56:05;99516.22;;;16.81;88.35
78313;BME280;67568;47.438;21.408;2023-08-07T00:58:32;99504.97;;;16.77;88.95
78313;BME280;67568;47.438;21.408;2023-08-07T01:01:02;99517.03;;;16.81;88.73
78313;BME280;67568;47.438;21.408;2023-08-07T01:03:29;99514.41;;;16.73;89.10
78313;BME280;67568;47.438;21.408;2023-08-07T01:05:56;99517.56;;;16.71;89.12
78313;BME280;67568;47.438;21.408;2023-08-07T01:08:24;99515.50;;;16.68;89.22
78313;BME280;67568;47.438;21.408;2023-08-07T01:11:09;99515.13;;;16.70;89.61
78313;BME280;67568;47.438;21.408;2023-08-07T01:16:35;99519.91;;;16.69;89.64
78313;BME280;67568;47.438;21.408;2023-08-07T01:19:04;99519.84;;;16.66;89.88
78313;BME280;67568;47.438;21.408;2023-08-07T01:21:34;99522.19;;;16.63;89.36
78313;BME280;67568;47.438;21.408;2023-08-07T01:24:01;99521.31;;;16.59;90.26
78313;BME280;67568;47.438;21.408;2023-08-07T01:26:28;99528.44;;;16.57;89.87
78313;BME280;67568;47.438;21.408;2023-08-07T01:29:04;99520.13;;;16.60;90.19
78313;BME280;67568;47.438;21.408;2023-08-07T01:31:35;99525.25;;;16.58;90.15
78313;BME280;67568;47.438;21.408;2023-08-07T01:34:06;99532.03;;;16.57;90.00
78313;BME280;67568;47.438;21.408;2023-08-07T01:36:34;99525.25;;;16.58;89.63
78313;BME280;67568;47.438;21.408;2023-08-07T01:39:02;99534.38;;;16.55;89.95
78313;BME280;67568;47.438;21.408;2023-08-07T01:41:29;99530.03;;;16.58;89.79
78313;BME280;67568;47.438;21.408;2023-08-07T01:43:57;99524.44;;;16.58;89.20
78313;BME280;67568;47.438;21.408;2023-08-07T01:46:24;99525.25;;;16.58;89.24
78313;BME280;67568;47.438;21.408;2023-08-07T01:48:50;99528.44;;;16.57;89.47
78313;BME280;67568;47.438;21.408;2023-08-07T01:51:17;99529.22;;;16.57;89.26
78313;BME280;67568;47.438;21.408;2023-08-07T01:53:44;99540.41;;;16.57;89.21
78313;BME280;67568;47.438;21.408;2023-08-07T01:56:11;99537.16;;;16.55;89.19
78313;BME280;67568;47.438;21.408;2023-08-07T01:58:37;99536.00;;;16.56;89.05
78313;BME280;67568;47.438;21.408;2023-08-07T02:01:04;99534.81;;;16.57;89.11
78313;BME280;67568;47.438;21.408;2023-08-07T02:03:31;99541.22;;;16.58;89.17
78313;BME280;67568;47.438;21.408;2023-08-07T02:05:58;99550.25;;;16.51;88.80
78313;BME280;67568;47.438;21.408;2023-08-07T02:08:25;99546.28;;;16.52;89.15
78313;BME280;67568;47.438;21.408;2023-08-07T02:10:51;99553.31;;;16.46;89.44
78313;BME280;67568;47.438;21.408;2023-08-07T02:13:21;99560.09;;;16.45;88.40
78313;BME280;67568;47.438;21.408;2023-08-07T02:15:47;99547.28;;;16.44;88.43
78313;BME280;67568;47.438;21.408;2023-08-07T02:18:14;99553.59;;;16.41;88.36
78313;BME280;67568;47.438;21.408;2023-08-07T02:20:42;99558.84;;;16.42;89.17
78313;BME280;67568;47.438;21.408;2023-08-07T02:23:09;99556.94;;;16.31;89.23
78313;BME280;67568;47.438;21.408;2023-08-07T02:25:36;99558.28;;;16.37;88.96
78313;BME280;67568;47.438;21.408;2023-08-07T02:28:02;99553.44;;;16.34;88.58
78313;BME280;67568;47.438;21.408;2023-08-07T02:30:30;99554.03;;;16.27;88.22
78313;BME280;67568;47.438;21.408;2023-08-07T02:32:58;99558.09;;;16.30;88.71
78313;BME280;67568;47.438;21.408;2023-08-07T02:35:28;99570.94;;;16.31;88.66
78313;BME280;67568;47.438;21.408;2023-08-07T02:37:55;99559.75;;;16.31;88.09
78313;BME280;67568;47.438;21.408;2023-08-07T02:40:22;99566.03;;;16.28;88.11
78313;BME280;67568;47.438;21.408;2023-08-07T02:42:48;99568.00;;;16.27;88.27
78313;BME280;67568;47.438;21.408;2023-08-07T02:45:15;99569.19;;;16.26;87.51
78313;BME280;67568;47.438;21.408;2023-08-07T02:47:42;99570.81;;;16.27;87.88
78313;BME280;67568;47.438;21.408;2023-08-07T02:50:09;99579.31;;;16.31;87.50
78313;BME280;67568;47.438;21.408;2023-08-07T02:52:35;99577.03;;;16.21;87.26
78313;BME280;67568;47.438;21.408;2023-08-07T02:55:02;99575.59;;;16.27;87.51
78313;BME280;67568;47.438;21.408;2023-08-07T02:57:29;99580.00;;;16.28;87.18
78313;BME280;67568;47.438;21.408;2023-08-07T02:59:56;99581.91;;;16.24;86.91
78313;BME280;67568;47.438;21.408;2023-08-07T03:02:22;99581.91;;;16.24;86.97
78313;BME280;67568;47.438;21.408;2023-08-07T03:04:49;99575.59;;;16.27;87.14
78313;BME280;67568;47.438;21.408;2023-08-07T03:07:16;99584.44;;;16.29;86.84
78313;BME280;67568;47.438;21.408;2023-08-07T03:09:46;99567.47;;;16.22;86.55
78313;BME280;67568;47.438;21.408;2023-08-07T03:12:13;99577.13;;;16.24;86.36
78313;BME280;67568;47.438;21.408;2023-08-07T03:14:40;99574.72;;;16.23;86.70
78313;BME280;67568;47.438;21.408;2023-08-07T03:17:07;99596.22;;;16.22;85.94
78313;BME280;67568;47.438;21.408;2023-08-07T03:19:35;99600.94;;;16.18;86.18
78313;BME280;67568;47.438;21.408;2023-08-07T03:22:02;99599.41;;;16.21;86.62
78313;BME280;67568;47.438;21.408;2023-08-07T03:24:29;99606.50;;;16.18;85.23
78313;BME280;67568;47.438;21.408;2023-08-07T03:26:55;99608.13;;;16.19;86.27
78313;BME280;67568;47.438;21.408;2023-08-07T03:29:23;99609.31;;;16.18;85.50
78313;BME280;67568;47.438;21.408;2023-08-07T03:31:50;99608.75;;;16.12;85.61
78313;BME280;67568;47.438;21.408;2023-08-07T03:34:16;99612.28;;;16.09;85.18
78313;BME280;67568;47.438;21.408;2023-08-07T03:36:44;99618.56;;;16.06;85.34
78313;BME280;67568;47.438;21.408;2023-08-07T03:39:11;99619.63;;;16.02;84.92
78313;BME280;67568;47.438;21.408;2023-08-07T03:41:38;99637.22;;;16.02;85.36
78313;BME280;67568;47.438;21.408;2023-08-07T03:44:05;99635.59;;;16.01;85.66
78313;BME280;67568;47.438;21.408;2023-08-07T03:46:32;99632.34;;;15.99;85.31
78313;BME280;67568;47.438;21.408;2023-08-07T03:49:05;99638.75;;;16.00;85.49
78313;BME280;67568;47.438;21.408;2023-08-07T03:51:32;99644.22;;;15.96;85.16
78313;BME280;67568;47.438;21.408;2023-08-07T03:53:59;99640.53;;;15.92;85.04
78313;BME280;67568;47.438;21.408;2023-08-07T03:56:29;99644.75;;;15.86;84.79
78313;BME280;67568;47.438;21.408;2023-08-07T03:58:56;99641.59;;;15.87;84.96
78313;BME280;67568;47.438;21.408;2023-08-07T04:01:22;99647.88;;;15.84;84.82
78313;BME280;67568;47.438;21.408;2023-08-07T04:03:49;99656.63;;;15.83;83.73
78313;BME280;67568;47.438;21.408;2023-08-07T04:06:16;99655.22;;;15.89;84.21
78313;BME280;67568;47.438;21.408;2023-08-07T04:08:45;99656.81;;;15.90;83.79
78313;BME280;67568;47.438;21.408;2023-08-07T04:11:12;99661.13;;;16.00;83.56
78313;BME280;67568;47.438;21.408;2023-08-07T04:13:39;99663.75;;;16.08;83.27
78313;BME280;67568;47.438;21.408;2023-08-07T04:16:08;99671.16;;;16.16;82.28
78313;BME280;67568;47.438;21.408;2023-08-07T04:18:35;99667.38;;;16.25;82.76
78313;BME280;67568;47.438;21.408;2023-08-07T04:21:02;99673.44;;;16.27;82.68
78313;BME280;67568;47.438;21.408;2023-08-07T04:23:29;99665.31;;;16.22;82.50
78313;BME280;67568;47.438;21.408;2023-08-07T04:25:55;99669.75;;;16.23;82.57
78313;BME280;67568;47.438;21.408;2023-08-07T04:28:23;99667.69;;;16.35;82.20
78313;BME280;67568;47.438;21.408;2023-08-07T04:30:51;99667.22;;;16.33;81.45
78313;BME280;67568;47.438;21.408;2023-08-07T04:33:18;99663.78;;;16.24;82.13
78313;BME280;67568;47.438;21.408;2023-08-07T04:35:45;99659.94;;;16.29;82.02
78313;BME280;67568;47.438;21.408;2023-08-07T04:38:13;99654.13;;;16.22;81.34
78313;BME280;67568;47.438;21.408;2023-08-07T04:40:47;99662.09;;;16.35;81.82
78313;BME280;67568;47.438;21.408;2023-08-07T04:43:16;99662.47;;;16.34;81.93
78313;BME280;67568;47.438;21.408;2023-08-07T04:45:43;99666.63;;;16.40;81.73
78313;BME280;67568;47.438;21.408;2023-08-07T04:48:10;99664.53;;;16.37;81.47
78313;BME280;67568;47.438;21.408;2023-08-07T04:50:38;99665.44;;;16.41;81.50
78313;BME280;67568;47.438;21.408;2023-08-07T04:53:05;99677.56;;;16.45;81.67
78313;BME280;67568;47.438;21.408;2023-08-07T04:55:34;99680.97;;;16.54;80.54
78313;BME280;67568;47.438;21.408;2023-08-07T04:58:01;99681.44;;;16.56;80.18
78313;BME280;67568;47.438;21.408;2023-08-07T05:00:28;99674.38;;;16.47;80.91
78313;BME280;67568;47.438;21.408;2023-08-07T05:02:55;99675.31;;;16.67;80.13
78313;BME280;67568;47.438;21.408;2023-08-07T05:05:22;99686.19;;;17.00;79.50
78313;BME280;67568;47.438;21.408;2023-08-07T05:07:49;99674.34;;;17.06;78.96
78313;BME280;67568;47.438;21.408;2023-08-07T05:10:16;99671.19;;;16.92;79.05
78313;BME280;67568;47.438;21.408;2023-08-07T05:12:42;99678.69;;;16.88;79.75
78313;BME280;67568;47.438;21.408;2023-08-07T05:15:09;99670.81;;;16.78;80.05
78313;BME280;67568;47.438;21.408;2023-08-07T05:17:36;99676.66;;;16.73;80.35
78313;BME280;67568;47.438;21.408;2023-08-07T05:20:04;99662.13;;;16.67;80.99
78313;BME280;67568;47.438;21.408;2023-08-07T05:22:31;99673.22;;;16.63;80.60
78313;BME280;67568;47.438;21.408;2023-08-07T05:24:57;99674.66;;;16.73;80.99
78313;BME280;67568;47.438;21.408;2023-08-07T05:27:24;99680.50;;;16.96;80.22
78313;BME280;67568;47.438;21.408;2023-08-07T05:29:51;99687.53;;;17.22;79.13
78313;BME280;67568;47.438;21.408;2023-08-07T05:32:18;99682.88;;;17.45;78.04
78313;BME280;67568;47.438;21.408;2023-08-07T05:34:44;99691.91;;;17.74;77.16
78313;BME280;67568;47.438;21.408;2023-08-07T05:37:11;99694.75;;;17.93;76.80
78313;BME280;67568;47.438;21.408;2023-08-07T05:39:38;99695.34;;;18.22;76.28
78313;BME280;67568;47.438;21.408;2023-08-07T05:42:05;99701.75;;;18.42;75.19
78313;BME280;67568;47.438;21.408;2023-08-07T05:44:32;99692.97;;;18.24;74.43
78313;BME280;67568;47.438;21.408;2023-08-07T05:46:59;99704.28;;;18.28;73.60
78313;BME280;67568;47.438;21.408;2023-08-07T05:49:26;99713.00;;;18.65;73.23
78313;BME280;67568;47.438;21.408;2023-08-07T05:51:53;99707.69;;;18.79;72.46
78313;BME280;67568;47.438;21.408;2023-08-07T05:54:21;99722.53;;;19.03;72.15
78313;BME280;67568;47.438;21.408;2023-08-07T05:56:48;99706.72;;;19.18;71.34
78313;BME280;67568;47.438;21.408;2023-08-07T05:59:14;99719.88;;;19.37;70.68
78313;BME280;67568;47.438;21.408;2023-08-07T06:01:41;99729.59;;;19.43;70.02
78313;BME280;67568;47.438;21.408;2023-08-07T06:04:08;99720.28;;;19.12;70.05
78313;BME280;67568;47.438;21.408;2023-08-07T06:06:34;99725.84;;;18.85;72.09
78313;BME280;67568;47.438;21.408;2023-08-07T06:09:02;99722.53;;;18.80;72.52
78313;BME280;67568;47.438;21.408;2023-08-07T06:11:32;99726.13;;;19.26;71.08
78313;BME280;67568;47.438;21.408;2023-08-07T06:13:58;99729.31;;;19.74;69.11
78313;BME280;67568;47.438;21.408;2023-08-07T06:16:26;99728.47;;;20.00;66.96
78313;BME280;67568;47.438;21.408;2023-08-07T06:18:57;99729.88;;;20.17;66.16
78313;BME280;67568;47.438;21.408;2023-08-07T06:21:24;99741.09;;;20.44;66.50
78313;BME280;67568;47.438;21.408;2023-08-07T06:23:51;99742.13;;;20.62;65.21
78313;BME280;67568;47.438;21.408;2023-08-07T06:26:17;99735.06;;;20.79;64.90
78313;BME280;67568;47.438;21.408;2023-08-07T06:28:44;99745.09;;;20.80;64.29
78313;BME280;67568;47.438;21.408;2023-08-07T06:31:11;99745.41;;;20.72;63.98
78313;BME280;67568;47.438;21.408;2023-08-07T06:33:41;99746.88;;;20.92;63.73
78313;BME280;67568;47.438;21.408;2023-08-07T06:36:08;99750.03;;;20.87;62.57
78313;BME280;67568;47.438;21.408;2023-08-07T06:38:35;99748.69;;;20.77;63.36
78313;BME280;67568;47.438;21.408;2023-08-07T06:41:02;99750.09;;;20.94;62.71
78313;BME280;67568;47.438;21.408;2023-08-07T06:43:29;99744.41;;;20.87;63.14
78313;BME280;67568;47.438;21.408;2023-08-07T06:45:57;99754.84;;;20.86;62.88
78313;BME280;67568;47.438;21.408;2023-08-07T06:48:24;99752.88;;;20.91;62.84
78313;BME280;67568;47.438;21.408;2023-08-07T06:50:51;99758.13;;;20.92;62.28
78313;BME280;67568;47.438;21.408;2023-08-07T06:53:18;99745.75;;;21.04;62.55
78313;BME280;67568;47.438;21.408;2023-08-07T06:55:46;99753.44;;;21.07;62.29
78313;BME280;67568;47.438;21.408;2023-08-07T06:58:13;99747.31;;;20.98;61.37
78313;BME280;67568;47.438;21.408;2023-08-07T07:00:39;99751.28;;;20.93;61.80
78313;BME280;67568;47.438;21.408;2023-08-07T07:03:06;99752.38;;;20.81;62.14
78313;BME280;67568;47.438;21.408;2023-08-07T07:05:33;99758.84;;;20.85;61.33
78313;BME280;67568;47.438;21.408;2023-08-07T07:08:00;99759.59;;;20.79;62.16
78313;BME280;67568;47.438;21.408;2023-08-07T07:10:31;99751.47;;;20.74;62.01
78313;BME280;67568;47.438;21.408;2023-08-07T07:13:00;99745.88;;;20.77;61.59
78313;BME280;67568;47.438;21.408;2023-08-07T07:15:27;99751.56;;;20.81;61.69
78313;BME280;67568;47.438;21.408;2023-08-07T07:17:54;99757.34;;;20.95;62.37
78313;BME280;67568;47.438;21.408;2023-08-07T07:20:21;99761.88;;;21.03;61.08
78313;BME280;67568;47.438;21.408;2023-08-07T07:22:47;99763.59;;;21.19;60.47
78313;BME280;67568;47.438;21.408;2023-08-07T07:25:14;99765.00;;;21.39;60.95
78313;BME280;67568;47.438;21.408;2023-08-07T07:27:41;99766.53;;;21.33;61.18
78313;BME280;67568;47.438;21.408;2023-08-07T07:30:11;99771.63;;;21.17;60.63
78313;BME280;67568;47.438;21.408;2023-08-07T07:32:38;99773.59;;;21.53;60.30
78313;BME280;67568;47.438;21.408;2023-08-07T07:35:05;99771.47;;;21.40;59.86
78313;BME280;67568;47.438;21.408;2023-08-07T07:37:32;99786.06;;;21.52;59.43
78313;BME280;67568;47.438;21.408;2023-08-07T07:40:01;99789.22;;;21.44;60.13
78313;BME280;67568;47.438;21.408;2023-08-07T07:42:28;99779.91;;;20.99;59.78
78313;BME280;67568;47.438;21.408;2023-08-07T07:44:57;99779.28;;;21.16;60.27
78313;BME280;67568;47.438;21.408;2023-08-07T07:47:24;99792.25;;;21.24;60.33
78313;BME280;67568;47.438;21.408;2023-08-07T07:50:04;99788.22;;;21.25;59.85
78313;BME280;67568;47.438;21.408;2023-08-07T07:52:34;99782.41;;;21.07;59.32
78313;BME280;67568;47.438;21.408;2023-08-07T07:55:01;99799.78;;;21.13;59.53
78313;BME280;67568;47.438;21.408;2023-08-07T07:57:28;99807.63;;;20.93;59.23
78313;BME280;67568;47.438;21.408;2023-08-07T07:59:54;99810.56;;;21.04;59.74
78313;BME280;67568;47.438;21.408;2023-08-07T08:02:22;99812.97;;;21.05;58.89
78313;BME280;67568;47.438;21.408;2023-08-07T08:04:49;99814.31;;;21.19;58.79
78313;BME280;67568;47.438;21.408;2023-08-07T08:07:16;99816.38;;;21.22;59.39
78313;BME280;67568;47.438;21.408;2023-08-07T08:09:45;99825.56;;;21.15;59.58
78313;BME280;67568;47.438;21.408;2023-08-07T08:12:14;99822.78;;;21.19;59.85
78313;BME280;67568;47.438;21.408;2023-08-07T08:14:41;99820.38;;;21.21;57.94
78313;BME280;67568;47.438;21.408;2023-08-07T08:17:22;99823.28;;;21.31;58.60
78313;BME280;67568;47.438;21.408;2023-08-07T08:19:49;99829.41;;;21.37;59.03
78313;BME280;67568;47.438;21.408;2023-08-07T08:22:17;99839.25;;;21.17;58.55
78313;BME280;67568;47.438;21.408;2023-08-07T08:24:44;99834.06;;;21.22;59.77
78313;BME280;67568;47.438;21.408;2023-08-07T08:27:11;99830.88;;;21.65;58.30
78313;BME280;67568;47.438;21.408;2023-08-07T08:29:37;99833.81;;;21.79;56.10
78313;BME280;67568;47.438;21.408;2023-08-07T08:32:05;99837.38;;;21.69;56.52
78313;BME280;67568;47.438;21.408;2023-08-07T08:34:31;99844.19;;;21.68;56.27
78313;BME280;67568;47.438;21.408;2023-08-07T08:37:00;99845.97;;;21.90;57.18
78313;BME280;67568;47.438;21.408;2023-08-07T08:39:27;99843.06;;;21.76;57.66
78313;BME280;67568;47.438;21.408;2023-08-07T08:41:54;99849.78;;;21.61;58.31
78313;BME280;67568;47.438;21.408;2023-08-07T08:44:22;99854.69;;;21.30;58.51
78313;BME280;67568;47.438;21.408;2023-08-07T08:46:50;99855.81;;;21.22;58.98
78313;BME280;67568;47.438;21.408;2023-08-07T08:49:22;99853.28;;;21.09;59.68
78313;BME280;67568;47.438;21.408;2023-08-07T08:51:50;99856.78;;;20.99;59.83
78313;BME280;67568;47.438;21.408;2023-08-07T08:54:20;99856.25;;;21.24;59.43
78313;BME280;67568;47.438;21.408;2023-08-07T08:56:47;99859.59;;;20.99;59.51
78313;BME280;67568;47.438;21.408;2023-08-07T08:59:14;99860.38;;;20.66;59.30
78313;BME280;67568;47.438;21.408;2023-08-07T09:01:41;99851.28;;;20.76;59.37
78313;BME280;67568;47.438;21.408;2023-08-07T09:04:11;99864.28;;;20.88;59.45
78313;BME280;67568;47.438;21.408;2023-08-07T09:06:37;99853.28;;;20.76;58.36
78313;BME280;67568;47.438;21.408;2023-08-07T09:09:08;99870.63;;;20.78;59.62
78313;BME280;67568;47.438;21.408;2023-08-07T09:11:36;99868.44;;;20.98;59.83
78313;BME280;67568;47.438;21.408;2023-08-07T09:14:04;99873.25;;;20.97;58.50
78313;BME280;67568;47.438;21.408;2023-08-07T09:16:31;99882.50;;;20.64;58.50
78313;BME280;67568;47.438;21.408;2023-08-07T09:18:58;99878.69;;;20.83;58.62
78313;BME280;67568;47.438;21.408;2023-08-07T09:21:25;99890.66;;;20.73;58.70
78313;BME280;67568;47.438;21.408;2023-08-07T09:23:52;99888.66;;;21.07;59.00
78313;BME280;67568;47.438;21.408;2023-08-07T09:26:22;99893.22;;;21.19;57.24
78313;BME280;67568;47.438;21.408;2023-08-07T09:28:53;99894.06;;;21.23;57.34
78313;BME280;67568;47.438;21.408;2023-08-07T09:31:21;99889.56;;;21.15;56.80
78313;BME280;67568;47.438;21.408;2023-08-07T09:33:49;99895.09;;;21.07;57.06
78313;BME280;67568;47.438;21.408;2023-08-07T09:36:16;99907.13;;;21.04;57.92
78313;BME280;67568;47.438;21.408;2023-08-07T09:38:43;99905.47;;;21.00;58.16
78313;BME280;67568;47.438;21.408;2023-08-07T09:41:10;99914.44;;;20.75;58.04
78313;BME280;67568;47.438;21.408;2023-08-07T09:43:37;99912.22;;;20.61;58.44
78313;BME280;67568;47.438;21.408;2023-08-07T09:46:04;99920.22;;;20.59;58.82
78313;BME280;67568;47.438;21.408;2023-08-07T09:48:39;99918.00;;;20.72;59.26
78313;BME280;67568;47.438;21.408;2023-08-07T09:51:06;99915.31;;;20.53;57.87
78313;BME280;67568;47.438;21.408;2023-08-07T09:53:33;99921.00;;;20.56;58.74
78313;BME280;67568;47.438;21.408;2023-08-07T09:56:00;99918.63;;;20.58;58.67
78313;BME280;67568;47.438;21.408;2023-08-07T09:58:28;99928.34;;;20.64;58.91
78313;BME280;67568;47.438;21.408;2023-08-07T10:01:04;99936.47;;;20.70;58.90
78313;BME280;67568;47.438;21.408;2023-08-07T10:03:31;99932.38;;;20.63;58.18
78313;BME280;67568;47.438;21.408;2023-08-07T10:05:58;99937.53;;;20.58;57.69
78313;BME280;67568;47.438;21.408;2023-08-07T10:08:26;99938.19;;;20.78;57.76
78313;BME280;67568;47.438;21.408;2023-08-07T10:10:53;99929.19;;;20.69;57.20
78313;BME280;67568;47.438;21.408;2023-08-07T10:13:21;99935.75;;;21.06;57.63
78313;BME280;67568;47.438;21.408;2023-08-07T10:16:04;99934.88;;;21.36;57.49
78313;BME280;67568;47.438;21.408;2023-08-07T10:18:31;99939.47;;;21.48;55.89
78313;BME280;67568;47.438;21.408;2023-08-07T10:20:58;99937.66;;;21.66;54.52
78313;BME280;67568;47.438;21.408;2023-08-07T10:23:27;99935.97;;;21.62;54.54
78313;BME280;67568;47.438;21.408;2023-08-07T10:25:55;99935.34;;;21.38;54.52
78313;BME280;67568;47.438;21.408;2023-08-07T10:28:23;99943.84;;;21.45;54.70
78313;BME280;67568;47.438;21.408;2023-08-07T10:30:53;99941.44;;;21.44;54.63
78313;BME280;67568;47.438;21.408;2023-08-07T10:33:23;99949.31;;;21.31;54.01
78313;BME280;67568;47.438;21.408;2023-08-07T10:35:52;99948.06;;;21.62;54.59
78313;BME280;67568;47.438;21.408;2023-08-07T10:38:20;99942.75;;;21.53;53.78
78313;BME280;67568;47.438;21.408;2023-08-07T10:41:08;99935.41;;;21.45;53.99
78313;BME280;67568;47.438;21.408;2023-08-07T10:43:43;99936.75;;;21.59;54.04
78313;BME280;67568;47.438;21.408;2023-08-07T10:46:12;99941.06;;;21.86;54.02
78313;BME280;67568;47.438;21.408;2023-08-07T10:48:44;99937.31;;;22.19;54.14
78313;BME280;67568;47.438;21.408;2023-08-07T10:51:16;99945.88;;;21.86;53.91
78313;BME280;67568;47.438;21.408;2023-08-07T10:53:46;99943.19;;;21.55;54.06
78313;BME280;67568;47.438;21.408;2023-08-07T10:56:35;99944.16;;;21.74;54.56
78313;BME280;67568;47.438;21.408;2023-08-07T10:59:09;99931.53;;;22.05;53.77
78313;BME280;67568;47.438;21.408;2023-08-07T11:04:13;99935.13;;;22.47;52.02
78313;BME280;67568;47.438;21.408;2023-08-07T11:06:43;99924.53;;;22.36;50.95
78313;BME280;67568;47.438;21.408;2023-08-07T11:09:10;99917.81;;;22.55;52.11
78313;BME280;67568;47.438;21.408;2023-08-07T11:11:43;99921.06;;;22.57;51.44
78313;BME280;67568;47.438;21.408;2023-08-07T11:14:15;99920.00;;;22.83;51.69
78313;BME280;67568;47.438;21.408;2023-08-07T11:16:43;99912.75;;;22.89;51.03
78313;BME280;67568;47.438;21.408;2023-08-07T11:19:13;99927.81;;;23.15;52.02
78313;BME280;67568;47.438;21.408;2023-08-07T11:21:40;99936.88;;;22.73;50.91
78313;BME280;67568;47.438;21.408;2023-08-07T11:24:08;99929.50;;;22.54;52.62
78313;BME280;67568;47.438;21.408;2023-08-07T11:26:36;99930.94;;;22.26;53.45
78313;BME280;67568;47.438;21.408;2023-08-07T11:29:03;99934.94;;;22.25;53.04
78313;BME280;67568;47.438;21.408;2023-08-07T11:31:29;99935.47;;;22.38;52.84
78313;BME280;67568;47.438;21.408;2023-08-07T11:33:57;99936.41;;;22.08;51.56
78313;BME280;67568;47.438;21.408;2023-08-07T11:36:24;99944.25;;;22.29;51.21
78313;BME280;67568;47.438;21.408;2023-08-07T11:38:51;99939.53;;;22.44;51.79
78313;BME280;67568;47.438;21.408;2023-08-07T11:41:21;99938.88;;;22.17;51.16
78313;BME280;67568;47.438;21.408;2023-08-07T11:43:47;99940.34;;;22.44;50.94
78313;BME280;67568;47.438;21.408;2023-08-07T11:46:15;99938.81;;;22.54;50.46
78313;BME280;67568;47.438;21.408;2023-08-07T11:48:43;99941.66;;;22.65;51.46
78313;BME280;67568;47.438;21.408;2023-08-07T11:51:11;99944.81;;;22.53;50.50
78313;BME280;67568;47.438;21.408;2023-08-07T11:53:39;99944.88;;;22.60;50.21
78313;BME280;67568;47.438;21.408;2023-08-07T11:56:11;99950.31;;;22.31;50.72
78313;BME280;67568;47.438;21.408;2023-08-07T11:58:39;99959.66;;;22.42;49.97
78313;BME280;67568;47.438;21.408;2023-08-07T12:01:16;99945.75;;;22.16;49.50
78313;BME280;67568;47.438;21.408;2023-08-07T12:06:32;99942.16;;;22.19;49.58
78313;BME280;67568;47.438;21.408;2023-08-07T12:08:59;99952.28;;;22.23;48.83
78313;BME280;67568;47.438;21.408;2023-08-07T12:11:28;99947.09;;;22.29;49.57
78313;BME280;67568;47.438;21.408;2023-08-07T12:13:55;99952.41;;;22.41;49.55
78313;BME280;67568;47.438;21.408;2023-08-07T12:16:22;99952.84;;;22.47;49.76
78313;BME280;67568;47.438;21.408;2023-08-07T12:18:51;99948.88;;;22.52;49.22
78313;BME280;67568;47.438;21.408;2023-08-07T12:21:20;99959.72;;;22.50;49.35
78313;BME280;67568;47.438;21.408;2023-08-07T12:23:47;99959.31;;;22.48;49.13
78313;BME280;67568;47.438;21.408;2023-08-07T12:26:15;99961.78;;;22.53;49.58
78313;BME280;67568;47.438;21.408;2023-08-07T12:28:42;99969.06;;;22.57;47.88
78313;BME280;67568;47.438;21.408;2023-08-07T12:31:15;99963.00;;;22.59;48.06
78313;BME280;67568;47.438;21.408;2023-08-07T12:33:41;99950.91;;;22.55;49.05
78313;BME280;67568;47.438;21.408;2023-08-07T12:36:08;99962.59;;;22.57;48.31
78313;BME280;67568;47.438;21.408;2023-08-07T12:38:38;99961.41;;;22.58;49.18
78313;BME280;67568;47.438;21.408;2023-08-07T12:41:05;99966.97;;;22.43;49.21
78313;BME280;67568;47.438;21.408;2023-08-07T12:43:32;99973.38;;;22.40;49.44
78313;BME280;67568;47.438;21.408;2023-08-07T12:46:02;99969.00;;;22.47;48.95
78313;BME280;67568;47.438;21.408;2023-08-07T12:48:31;99973.44;;;22.48;49.03
78313;BME280;67568;47.438;21.408;2023-08-07T12:50:58;99978.53;;;22.31;48.85
78313;BME280;67568;47.438;21.408;2023-08-07T12:53:25;99972.84;;;22.20;48.61
78313;BME280;67568;47.438;21.408;2023-08-07T12:55:51;99986.47;;;22.15;48.54
78313;BME280;67568;47.438;21.408;2023-08-07T12:58:18;99988.63;;;21.91;48.61
78313;BME280;67568;47.438;21.408;2023-08-07T13:00:45;99985.34;;;21.82;49.45
78313;BME280;67568;47.438;21.408;2023-08-07T13:03:11;99982.03;;;21.73;49.51